createdAt,value
2018-09-22T00:01:07.808Z,90.10
2018-09-22T00:06:11.387Z,90.30
2018-09-22T00:11:17.130Z,90.30
2018-09-22T00:16:20.730Z,90.20
2018-09-22T00:21:24.347Z,90.50
2018-09-22T00:26:28.222Z,90.20
2018-09-22T00:31:31.786Z,90.10
2018-09-22T00:36:35.443Z,91.20
2018-09-22T00:41:39.154Z,90.80
2018-09-22T00:46:42.831Z,90.20
2018-09-22T00:51:46.490Z,90.40
2018-09-22T00:56:50.090Z,90.70
2018-09-22T01:01:53.654Z,90.20
2018-09-22T01:06:57.438Z,90.80
2018-09-22T01:12:00.993Z,91.60
2018-09-22T01:17:04.747Z,90.30
2018-09-22T01:22:08.301Z,91.20
2018-09-22T01:27:11.859Z,90.50
2018-09-22T01:32:15.586Z,90.90
2018-09-22T01:37:19.170Z,90.60
2018-09-22T01:42:23.880Z,90.70
2018-09-22T01:47:27.458Z,91.20
2018-09-22T01:52:33.301Z,90.90
2018-09-22T01:57:36.942Z,91.10
2018-09-22T02:02:40.669Z,91.10
2018-09-22T02:07:44.284Z,92.00
2018-09-22T02:12:47.870Z,91.40
2018-09-22T02:17:51.558Z,91.30
2018-09-22T02:22:55.383Z,91.10
2018-09-22T02:27:58.970Z,91.40
2018-09-22T02:33:03.684Z,91.70
2018-09-22T02:38:07.247Z,91.70
2018-09-22T02:43:10.818Z,91.90
2018-09-22T02:48:14.499Z,91.30
2018-09-22T02:53:18.122Z,92.90
2018-09-22T02:58:21.859Z,91.60
2018-09-22T03:03:25.410Z,91.70
2018-09-22T03:08:29.009Z,92.00
2018-09-22T03:13:32.567Z,93.50
2018-09-22T03:18:36.187Z,91.80
2018-09-22T03:23:40.031Z,92.40
2018-09-22T03:28:43.561Z,92.00
2018-09-22T03:33:47.124Z,93.10
2018-09-22T03:38:50.689Z,92.60
2018-09-22T03:43:54.364Z,92.70
2018-09-22T03:48:57.907Z,92.80
2018-09-22T03:54:01.579Z,92.80
2018-09-22T03:59:05.162Z,92.80
2018-09-22T04:04:08.778Z,93.10
2018-09-22T04:09:12.429Z,93.80
2018-09-22T04:14:15.975Z,93.00
2018-09-22T04:19:19.565Z,93.00
2018-09-22T04:24:23.286Z,96.40
2018-09-22T04:29:26.846Z,92.90
2018-09-22T04:34:30.389Z,93.50
2018-09-22T04:39:36.054Z,93.30
2018-09-22T04:44:39.622Z,93.30
2018-09-22T04:49:43.214Z,93.30
2018-09-22T04:54:46.850Z,93.50
2018-09-22T04:59:50.407Z,93.50
2018-09-22T05:04:54.092Z,94.30
2018-09-22T05:09:57.703Z,93.50
2018-09-22T05:15:01.282Z,93.70
2018-09-22T05:20:05.907Z,93.50
2018-09-22T05:25:09.566Z,93.60
2018-09-22T05:30:13.171Z,93.60
2018-09-22T05:35:16.760Z,93.90
2018-09-22T05:40:20.419Z,93.70
2018-09-22T05:45:23.975Z,93.60
2018-09-22T05:50:27.655Z,93.80
2018-09-22T05:55:31.482Z,93.90
2018-09-22T06:00:38.645Z,94.10
2018-09-22T06:05:43.274Z,93.70
2018-09-22T06:10:46.853Z,94.40
2018-09-22T06:15:50.420Z,93.60
2018-09-22T06:20:55.191Z,93.80
2018-09-22T06:25:58.831Z,93.40
2018-09-22T06:31:02.584Z,94.00
2018-09-22T06:36:06.230Z,94.80
2018-09-22T06:41:09.894Z,93.80
2018-09-22T06:46:13.557Z,93.20
2018-09-22T06:51:17.119Z,93.50
2018-09-22T06:56:20.727Z,93.30
2018-09-22T07:01:24.277Z,92.90
2018-09-22T07:06:28.294Z,92.80
2018-09-22T07:11:32.882Z,92.70
2018-09-22T07:16:38.631Z,92.90
2018-09-22T07:21:47.394Z,92.70
2018-09-22T07:26:51.019Z,92.80
2018-09-22T07:31:54.881Z,92.90
2018-09-22T07:36:59.695Z,92.20
2018-09-22T07:42:03.349Z,92.30
2018-09-22T07:47:07.297Z,92.70
2018-09-22T07:52:11.063Z,91.40
2018-09-22T07:57:14.889Z,91.80
2018-09-22T08:02:18.590Z,91.60
2018-09-22T08:07:23.305Z,91.00
2018-09-22T08:12:27.031Z,90.80
2018-09-22T08:17:30.791Z,89.80
2018-09-22T08:22:34.419Z,88.30
2018-09-22T08:27:40.107Z,86.70
2018-09-22T08:32:45.615Z,86.60
2018-09-22T08:37:50.309Z,85.40
2018-09-22T08:42:55.143Z,86.80
2018-09-22T08:48:02.189Z,84.80
2018-09-22T08:53:07.823Z,83.30
2018-09-22T08:58:11.986Z,84.40
2018-09-22T09:03:16.037Z,83.30
2018-09-22T09:08:21.204Z,82.10
2018-09-22T09:13:25.034Z,81.00
2018-09-22T09:18:28.711Z,79.00
2018-09-22T09:23:32.394Z,80.00
2018-09-22T09:28:39.207Z,78.50
2018-09-22T09:33:48.262Z,76.20
2018-09-22T09:38:58.644Z,76.40
2018-09-22T09:44:02.584Z,75.70
2018-09-22T09:49:07.618Z,72.60
2018-09-22T09:54:11.729Z,74.90
2018-09-22T09:59:16.228Z,73.10
2018-09-22T10:04:23.538Z,73.60
2018-09-22T10:09:27.162Z,72.00
2018-09-22T10:14:31.552Z,73.40
2018-09-22T10:19:35.431Z,75.30
2018-09-22T10:24:38.973Z,76.30
2018-09-22T10:29:42.515Z,76.90
2018-09-22T10:34:46.126Z,77.70
2018-09-22T10:39:49.726Z,78.50
2018-09-22T10:44:53.266Z,79.40
2018-09-22T10:49:56.820Z,78.10
2018-09-22T10:55:00.643Z,77.90
2018-09-22T11:00:04.374Z,78.10
2018-09-22T11:05:08.096Z,79.50
2018-09-22T11:10:11.850Z,77.30
2018-09-22T11:15:15.468Z,77.70
2018-09-22T11:20:19.073Z,76.80
2018-09-22T11:25:22.693Z,77.00
2018-09-22T11:30:26.441Z,73.50
2018-09-22T11:35:30.442Z,76.50
2018-09-22T11:40:34.068Z,75.50
2018-09-22T11:45:38.900Z,71.90
2018-09-22T11:50:42.546Z,72.90
2018-09-22T11:55:46.135Z,72.00
2018-09-22T12:00:49.746Z,76.50
2018-09-22T12:05:53.672Z,70.20
2018-09-22T12:10:57.315Z,70.80
2018-09-22T12:16:03.515Z,71.30
2018-09-22T12:21:07.635Z,68.60
2018-09-22T12:26:11.281Z,69.20
2018-09-22T12:31:14.859Z,70.50
2018-09-22T12:36:18.422Z,69.90
2018-09-22T12:41:25.794Z,68.90
2018-09-22T12:46:29.896Z,68.90
2018-09-22T12:51:33.619Z,69.70
2018-09-22T12:56:37.520Z,70.40
2018-09-22T13:01:46.770Z,69.50
2018-09-22T13:06:50.344Z,71.50
2018-09-22T13:11:58.573Z,70.10
2018-09-22T13:17:03.337Z,70.60
2018-09-22T13:22:07.685Z,72.30
2018-09-22T13:27:11.487Z,70.50
2018-09-22T13:32:15.294Z,72.40
2018-09-22T13:37:19.004Z,70.20
2018-09-22T13:42:23.769Z,69.80
2018-09-22T13:47:30.951Z,70.20
2018-09-22T13:52:34.855Z,70.50
2018-09-22T13:57:38.952Z,71.20
2018-09-22T14:02:43.845Z,71.40
2018-09-22T14:07:48.687Z,75.20
2018-09-22T14:12:52.498Z,70.60
2018-09-22T14:17:59.113Z,70.80
2018-09-22T14:23:02.886Z,72.40
2018-09-22T14:28:06.919Z,71.50
2018-09-22T14:33:11.291Z,69.50
2018-09-22T14:38:16.405Z,71.90
2018-09-22T14:43:20.163Z,70.30
2018-09-22T14:48:24.792Z,70.30
2018-09-22T14:53:29.535Z,70.80
2018-09-22T14:58:35.472Z,71.20
2018-09-22T15:04:27.354Z,70.40
2018-09-22T15:09:31.151Z,70.80
2018-09-22T15:14:37.398Z,71.40
2018-09-22T15:19:41.443Z,71.60
2018-09-22T15:24:45.280Z,71.70
2018-09-22T15:29:49.033Z,74.60
2018-09-22T15:34:52.699Z,72.00
2018-09-22T15:39:56.696Z,74.30
2018-09-22T15:45:00.726Z,74.00
2018-09-22T15:50:04.558Z,76.70
2018-09-22T15:55:08.473Z,74.90
2018-09-22T16:00:12.183Z,78.60
2018-09-22T16:05:15.983Z,76.10
2018-09-22T16:10:19.935Z,75.50
2018-09-22T16:15:23.725Z,76.00
2018-09-22T16:20:29.434Z,84.60
2018-09-22T16:25:33.193Z,85.30
2018-09-22T16:30:36.854Z,86.50
2018-09-22T16:35:40.467Z,88.30
2018-09-22T16:40:45.016Z,89.80
2018-09-22T16:45:48.752Z,91.00
2018-09-22T16:50:53.521Z,91.00
2018-09-22T16:55:57.210Z,92.00
2018-09-22T17:01:01.155Z,91.60
2018-09-22T17:06:05.702Z,92.10
2018-09-22T17:11:09.486Z,92.80
2018-09-22T17:16:13.168Z,94.20
2018-09-22T17:21:17.426Z,95.40
2018-09-22T17:26:21.122Z,96.80
2018-09-22T17:31:25.366Z,97.60
2018-09-22T17:36:29.056Z,98.00
2018-09-22T17:41:33.856Z,98.10
2018-09-22T17:46:39.668Z,98.80
2018-09-22T17:51:44.406Z,98.40
2018-09-22T17:56:50.082Z,99.10
2018-09-22T18:01:54.091Z,98.80
2018-09-22T18:06:58.191Z,99.90
2018-09-22T18:12:02.004Z,99.20
2018-09-22T18:17:05.984Z,99.30
2018-09-22T18:22:10.916Z,99.70
2018-09-22T18:27:15.638Z,99.90
2018-09-22T18:32:19.257Z,99.90
2018-09-22T18:37:22.877Z,99.90
2018-09-22T18:42:27.303Z,99.90
2018-09-22T18:47:31.024Z,99.90
2018-09-22T18:52:35.823Z,99.90
2018-09-22T18:57:39.586Z,99.90
2018-09-22T19:02:44.571Z,99.90
2018-09-22T19:07:48.340Z,99.90
2018-09-22T19:12:52.038Z,99.90
2018-09-22T19:17:59.767Z,99.50
2018-09-22T19:23:08.243Z,99.40
2018-09-22T19:29:20.174Z,99.40
2018-09-22T19:34:27.580Z,99.90
2018-09-22T19:39:45.996Z,99.90
2018-09-22T19:44:59.725Z,99.90
2018-09-22T19:50:10.281Z,99.90
2018-09-22T19:55:14.111Z,99.90
2018-09-22T20:00:17.706Z,99.90
2018-09-22T20:05:23.359Z,99.90
2018-09-22T20:10:27.198Z,99.90
2018-09-22T20:15:30.782Z,99.90
2018-09-22T20:20:34.555Z,99.90
2018-09-22T20:25:38.465Z,99.90
2018-09-22T20:30:42.165Z,99.90
2018-09-22T20:35:46.835Z,99.90
2018-09-22T20:40:50.487Z,99.90
2018-09-22T20:45:55.527Z,99.90
2018-09-22T20:51:00.426Z,99.90
2018-09-22T20:56:04.027Z,99.90
2018-09-22T21:01:07.817Z,99.90
2018-09-22T21:06:12.543Z,99.90
2018-09-22T21:11:16.279Z,99.90
2018-09-22T21:16:21.903Z,99.90
2018-09-22T21:21:25.534Z,99.90
2018-09-22T21:26:29.207Z,99.90
2018-09-22T21:31:32.817Z,99.90
2018-09-22T21:36:36.598Z,99.90
2018-09-22T21:41:41.314Z,99.90
2018-09-22T21:46:48.542Z,99.90
2018-09-22T21:51:52.246Z,99.90
2018-09-22T21:56:55.863Z,99.90
2018-09-22T22:01:59.513Z,99.90
2018-09-22T22:07:03.198Z,99.90
2018-09-22T22:12:07.454Z,99.90
2018-09-22T22:17:11.906Z,99.90
2018-09-22T22:22:19.113Z,99.90
2018-09-22T22:27:23.807Z,99.90
2018-09-22T22:32:27.602Z,99.90
2018-09-22T22:37:32.314Z,99.90
2018-09-22T22:42:41.366Z,99.90
2018-09-22T22:47:44.947Z,99.90
2018-09-22T22:52:48.723Z,99.90
2018-09-22T22:57:53.374Z,99.90
2018-09-22T23:02:57.062Z,99.90
2018-09-22T23:08:01.467Z,99.90
2018-09-22T23:13:05.235Z,99.90
2018-09-22T23:18:09.966Z,99.90
2018-09-22T23:23:13.727Z,99.90
2018-09-22T23:28:17.377Z,99.90
2018-09-22T23:33:22.098Z,99.90
2018-09-22T23:38:25.743Z,99.90
2018-09-22T23:43:29.475Z,99.90
2018-09-22T23:48:33.198Z,99.90
2018-09-22T23:53:36.740Z,99.90
2018-09-22T23:58:40.381Z,99.90
